Time;durP1;ratioP1;P1;durP2;ratioP2;P2;SDS_P1;SDS_P2;PMS_P1;PMS_P2;Temp;Humidity;BMP_temperature;BMP_pressure;BME280_temperature;BME280_humidity;BME280_pressure;Samples;Min_cycle;Max_cycle;Signal;HPM_P1;HPM_P2
2022/07/28 00:01:53;;;;;;;4.18;1.35;;;;;;;16.76;56.51;101721.84;3593901;39;20175;-63
2022/07/28 00:04:19;;;;;;;2.55;1.33;;;;;;;16.76;56.89;101710.13;3593797;39;20389;-63
2022/07/28 00:06:44;;;;;;;4.93;1.60;;;;;;;16.72;56.63;101712.16;3589009;39;20048;-63
2022/07/28 00:09:10;;;;;;;4.25;1.75;;;;;;;16.72;56.47;101720.31;3592427;39;20128;-63
2022/07/28 00:11:36;;;;;;;4.85;1.30;;;;;;;16.66;56.13;101715.34;3593736;39;20182;-61
2022/07/28 00:14:01;;;;;;;5.93;1.40;;;;;;;15.96;56.95;101600.09;3593049;39;20313;-61
2022/07/28 00:16:27;;;;;;;7.20;1.80;;;;;;;16.56;56.86;101717.00;3589479;39;20269;-62
2022/07/28 00:18:52;;;;;;;6.22;2.00;;;;;;;16.51;56.73;101711.03;3592834;39;20108;-61
2022/07/28 00:21:18;;;;;;;4.97;1.30;;;;;;;16.50;57.11;101720.16;3595015;39;20421;-61
2022/07/28 00:23:44;;;;;;;4.88;1.70;;;;;;;16.44;57.05;101724.16;3586105;39;20051;-61
2022/07/28 00:26:11;;;;;;;6.80;1.40;;;;;;;16.40;57.44;101723.53;3595825;39;20054;-62
2022/07/28 00:28:37;;;;;;;3.97;1.55;;;;;;;16.36;57.48;101724.72;3592801;39;20394;-61
2022/07/28 00:31:04;;;;;;;4.30;1.77;;;;;;;16.34;57.18;101715.81;3593238;39;20063;-60
2022/07/28 00:33:30;;;;;;;1.85;1.13;;;;;;;16.34;57.79;101712.25;3592492;39;20115;-61
2022/07/28 00:35:55;;;;;;;4.07;1.55;;;;;;;16.28;58.03;101702.69;3597288;39;20059;-61
2022/07/28 00:38:21;;;;;;;4.63;1.52;;;;;;;16.24;57.32;101712.91;3595542;39;20702;-61
2022/07/28 00:43:31;;;;;;;2.90;1.63;;;;;;;16.22;57.73;101708.56;3594787;39;20549;-62
2022/07/28 00:45:57;;;;;;;2.42;1.55;;;;;;;16.19;57.50;101714.22;3595370;39;20052;-62
2022/07/28 00:48:22;;;;;;;5.25;1.60;;;;;;;16.19;57.52;101708.78;3593522;39;20059;-63
2022/07/28 00:50:48;;;;;;;2.80;1.50;;;;;;;16.16;57.76;101699.00;3594155;39;20481;-62
2022/07/28 00:53:14;;;;;;;3.78;1.55;;;;;;;16.19;57.32;101704.22;3590109;39;20051;-62
2022/07/28 00:55:40;;;;;;;3.75;1.50;;;;;;;16.18;57.86;101690.78;3589784;39;20067;-62
2022/07/28 00:58:06;;;;;;;4.22;1.35;;;;;;;16.15;57.75;101685.56;3587292;39;20047;-61
2022/07/28 01:00:32;;;;;;;3.42;1.95;;;;;;;16.11;57.63;101687.66;3592446;39;20043;-62
2022/07/28 01:02:58;;;;;;;2.95;1.58;;;;;;;16.10;57.26;101685.03;3593319;39;20060;-63
2022/07/28 01:05:43;;;;;;;3.80;1.40;;;;;;;16.10;57.88;101694.03;3590836;39;20125;-62
2022/07/28 01:08:54;;;;;;;1.83;1.23;;;;;;;16.08;57.74;101697.81;3593983;39;20321;-62
2022/07/28 01:11:42;;;;;;;4.97;1.75;;;;;;;16.02;57.95;101694.59;3594139;39;20043;-61
2022/07/28 01:14:33;;;;;;;2.25;1.58;;;;;;;15.97;58.31;101694.03;3594364;39;20132;-61
2022/07/28 01:17:30;;;;;;;4.75;1.45;;;;;;;15.93;58.17;101708.78;3593893;39;20047;-61
2022/07/28 01:20:11;;;;;;;4.45;1.67;;;;;;;15.71;58.69;101678.72;3593460;39;20551;-61
2022/07/28 01:22:52;;;;;;;2.38;1.60;;;;;;;15.79;59.05;101695.31;3594775;39;20135;-61
2022/07/28 01:25:43;;;;;;;7.32;1.70;;;;;;;15.74;58.70;101698.34;3594199;39;20051;-61
2022/07/28 01:29:20;;;;;;;3.00;1.30;;;;;;;15.67;59.41;101696.19;3589715;39;20091;-61
2022/07/28 01:32:04;;;;;;;3.17;1.90;;;;;;;15.63;59.71;101691.91;3535425;40;20057;-60
2022/07/28 01:34:47;;;;;;;3.40;1.40;;;;;;;15.62;59.48;101690.19;3593682;39;20238;-60
2022/07/28 01:37:28;;;;;;;2.80;1.70;;;;;;;15.58;59.60;101686.81;3592150;39;20187;-61
2022/07/28 01:40:01;;;;;;;3.15;1.60;;;;;;;15.57;59.93;101679.63;3591523;39;21863;-60
2022/07/28 01:42:36;;;;;;;5.38;1.77;;;;;;;15.44;59.82;101666.06;3592296;39;20127;-61
2022/07/28 01:45:06;;;;;;;6.10;2.10;;;;;;;15.45;59.81;101665.13;3593310;39;20055;-61
2022/07/28 01:47:34;;;;;;;5.22;1.50;;;;;;;15.43;60.13;101669.75;3591069;39;20051;-61
2022/07/28 01:50:05;;;;;;;4.55;1.75;;;;;;;15.42;60.28;101670.75;3594122;39;20064;-62
2022/07/28 01:52:34;;;;;;;2.97;1.60;;;;;;;15.37;60.32;101667.47;3594918;39;20051;-62
2022/07/28 01:55:02;;;;;;;5.28;2.25;;;;;;;15.33;60.50;101672.25;3592804;39;20406;-60
2022/07/28 01:57:34;;;;;;;10.23;2.08;;;;;;;15.32;60.75;101669.66;3592246;39;20055;-60
2022/07/28 02:00:02;;;;;;;3.92;1.80;;;;;;;15.26;60.43;101680.91;3592055;39;20152;-61
2022/07/28 02:02:32;;;;;;;2.75;1.75;;;;;;;15.22;60.76;101658.56;3594076;39;20062;-60
2022/07/28 02:05:01;;;;;;;2.17;1.70;;;;;;;15.19;60.87;101663.31;3593821;39;20291;-60
2022/07/28 02:07:30;;;;;;;4.00;1.73;;;;;;;15.20;61.00;101670.47;3595000;39;20067;-60
2022/07/28 02:10:00;;;;;;;3.92;2.00;;;;;;;15.17;60.95;101660.72;3594778;39;20067;-64
2022/07/28 02:12:28;;;;;;;2.70;1.70;;;;;;;15.15;61.19;101661.78;3593077;39;20421;-61
2022/07/28 02:14:57;;;;;;;3.25;1.70;;;;;;;15.11;61.41;101661.13;3591486;39;20425;-61
2022/07/28 02:17:31;;;;;;;3.22;1.70;;;;;;;15.09;60.94;101663.94;3591632;39;20063;-61
2022/07/28 02:20:01;;;;;;;6.13;2.05;;;;;;;15.07;61.33;101648.78;3592359;39;20102;-61
2022/07/28 02:22:28;;;;;;;4.75;1.63;;;;;;;15.04;61.42;101660.69;3591947;39;20054;-61
2022/07/28 02:24:55;;;;;;;3.45;2.00;;;;;;;15.02;61.81;101662.63;3594233;39;20105;-61
2022/07/28 02:27:43;;;;;;;3.75;1.92;;;;;;;14.99;62.02;101662.81;3592071;39;20053;-61
2022/07/28 02:30:16;;;;;;;4.80;1.70;;;;;;;14.96;61.81;101652.19;3594309;39;20128;-61
2022/07/28 02:33:16;;;;;;;;;;;;;;;14.93;61.47;101660.50;3593054;39;20573;-62
2022/07/28 02:36:00;;;;;;;4.18;1.88;;;;;;;14.88;62.51;101662.69;3576659;39;20296;-61
2022/07/28 02:38:34;;;;;;;5.00;2.15;;;;;;;14.85;61.97;101663.75;3593383;39;20051;-62
2022/07/28 02:41:09;;;;;;;4.70;2.20;;;;;;;14.80;62.41;101656.91;3595120;39;20055;-62
2022/07/28 02:43:41;;;;;;;5.30;2.00;;;;;;;14.75;62.66;101659.06;3583383;39;20398;-63
2022/07/28 02:46:15;;;;;;;5.18;1.80;;;;;;;14.65;62.36;101638.97;3594353;39;20063;-63
2022/07/28 02:48:48;;;;;;;3.28;1.65;;;;;;;14.73;62.76;101652.88;3589749;39;20068;-63
2022/07/28 02:51:20;;;;;;;5.43;1.95;;;;;;;14.71;62.35;101657.50;3593495;39;20059;-63
2022/07/28 02:53:49;;;;;;;3.08;1.95;;;;;;;14.67;62.56;101650.56;3593211;39;20066;-63
2022/07/28 02:56:17;;;;;;;3.20;2.03;;;;;;;14.65;62.62;101653.34;3593296;39;20055;-63
2022/07/28 02:58:45;;;;;;;4.28;1.80;;;;;;;14.63;62.77;101655.31;3592029;39;20048;-63
2022/07/28 03:01:14;;;;;;;5.57;1.83;;;;;;;14.61;62.69;101658.09;3585572;39;20131;-62
2022/07/28 03:03:41;;;;;;;4.55;2.13;;;;;;;14.55;62.47;101653.09;3594104;39;20454;-62
2022/07/28 03:06:06;;;;;;;3.78;1.98;;;;;;;14.51;62.66;101656.09;3592782;39;20063;-62
2022/07/28 03:08:32;;;;;;;4.63;2.03;;;;;;;14.48;62.71;101650.88;3593885;39;20050;-63
2022/07/28 03:11:13;;;;;;;3.20;1.88;;;;;;;14.41;63.21;101647.69;3593347;39;20062;-65
2022/07/28 03:13:39;;;;;;;7.25;2.20;;;;;;;14.37;62.51;101646.16;3593191;39;20085;-64
2022/07/28 03:16:06;;;;;;;1.98;1.63;;;;;;;14.30;63.15;101659.22;3593094;39;20457;-64
2022/07/28 03:18:32;;;;;;;4.07;2.00;;;;;;;14.28;62.98;101654.88;3593845;39;20059;-63
2022/07/28 03:20:58;;;;;;;3.78;2.05;;;;;;;14.25;63.46;101661.34;3592811;39;20051;-63
2022/07/28 03:23:35;;;;;;;3.08;2.08;;;;;;;14.20;63.43;101659.88;3593204;39;20055;-63
2022/07/28 03:26:29;;;;;;;3.05;2.05;;;;;;;14.16;63.17;101656.50;3594620;39;20059;-62
2022/07/28 03:28:57;;;;;;;6.35;2.35;;;;;;;14.10;63.10;101652.34;3592659;39;20062;-63
2022/07/28 03:31:27;;;;;;;4.57;2.10;;;;;;;14.00;63.48;101647.63;3592621;39;20071;-63
2022/07/28 03:33:53;;;;;;;2.45;1.67;;;;;;;14.00;63.53;101651.22;3592191;39;20059;-63
2022/07/28 03:36:38;;;;;;;3.83;2.10;;;;;;;13.98;64.23;101650.41;3593903;39;20417;-63
2022/07/28 03:39:10;;;;;;;6.22;2.33;;;;;;;13.97;63.95;101650.53;3593989;39;20338;-63
2022/07/28 03:41:41;;;;;;;5.25;2.15;;;;;;;13.91;63.88;101657.19;3591904;39;20059;-63
2022/07/28 03:44:11;;;;;;;5.38;1.90;;;;;;;13.87;63.67;101652.94;3593876;39;20055;-63
2022/07/28 03:46:45;;;;;;;4.63;2.08;;;;;;;13.86;63.74;101656.59;3596964;39;20073;-63
2022/07/28 03:49:12;;;;;;;4.60;2.38;;;;;;;13.83;63.95;101652.28;3581866;39;20126;-63
2022/07/28 03:51:37;;;;;;;9.50;2.38;;;;;;;13.84;64.01;101650.44;3596340;39;20094;-62
2022/07/28 03:54:03;;;;;;;5.18;2.30;;;;;;;13.82;64.01;101653.22;3595960;39;20059;-62
2022/07/28 03:56:29;;;;;;;3.35;2.10;;;;;;;13.82;64.04;101649.66;3593570;39;20429;-62
2022/07/28 03:58:54;;;;;;;6.25;2.20;;;;;;;13.59;63.96;101619.53;3591979;39;20457;-62
2022/07/28 04:01:20;;;;;;;7.00;2.58;;;;;;;13.76;63.76;101644.63;3594218;39;20055;-62
2022/07/28 04:03:45;;;;;;;6.00;2.30;;;;;;;13.79;63.84;101649.84;3593823;39;20307;-62
2022/07/28 04:06:12;;;;;;;6.45;2.30;;;;;;;13.76;64.19;101647.31;3594205;39;20059;-62
2022/07/28 04:08:37;;;;;;;3.85;2.63;;;;;;;13.69;63.70;101645.00;3595535;39;20084;-63
2022/07/28 04:11:03;;;;;;;5.05;2.50;;;;;;;13.74;64.01;101651.97;3595998;39;20043;-63
2022/07/28 04:13:30;;;;;;;4.10;2.53;;;;;;;13.71;64.11;101650.31;3584059;39;20062;-63
2022/07/28 04:15:56;;;;;;;5.15;2.50;;;;;;;13.71;64.26;101650.31;3593806;39;20058;-63
2022/07/28 04:18:22;;;;;;;5.07;2.30;;;;;;;13.71;63.79;101650.31;3595222;39;20347;-63
2022/07/28 04:20:48;;;;;;;4.18;2.58;;;;;;;13.69;63.90;101653.09;3591699;39;20051;-63
2022/07/28 04:23:13;;;;;;;7.13;2.67;;;;;;;13.70;64.17;101649.47;3593638;39;20449;-63
2022/07/28 04:25:39;;;;;;;3.47;2.38;;;;;;;13.71;64.19;101653.03;3593889;39;20163;-63
2022/07/28 04:28:05;;;;;;;6.85;2.53;;;;;;;13.69;64.24;101645.00;3596054;39;20060;-63
2022/07/28 04:30:31;;;;;;;3.45;2.67;;;;;;;13.72;64.24;101643.94;3594574;39;20158;-63
2022/07/28 04:32:56;;;;;;;5.32;2.90;;;;;;;13.72;64.53;101645.78;3584673;39;20420;-63
2022/07/28 04:35:23;;;;;;;4.45;2.55;;;;;;;13.72;64.26;101645.78;3595086;39;20283;-62
2022/07/28 04:37:49;;;;;;;5.30;2.60;;;;;;;13.74;64.03;101651.97;3595354;39;20385;-62
2022/07/28 04:40:16;;;;;;;5.32;3.03;;;;;;;13.72;63.89;101645.78;3594507;39;20386;-64
2022/07/28 04:42:42;;;;;;;2.95;2.50;;;;;;;13.72;64.05;101656.59;3585812;39;20120;-64
2022/07/28 04:45:10;;;;;;;6.30;2.60;;;;;;;13.74;64.04;101647.44;3596426;39;20306;-64
2022/07/28 04:47:36;;;;;;;5.32;2.60;;;;;;;13.78;63.98;101650.81;3593599;39;20338;-64
2022/07/28 04:50:03;;;;;;;4.93;2.70;;;;;;;13.65;64.10;101619.16;3593093;39;20059;-64
2022/07/28 04:52:29;;;;;;;6.60;2.67;;;;;;;13.82;64.16;101641.53;3594224;39;20099;-64
2022/07/28 04:54:55;;;;;;;3.28;2.33;;;;;;;13.85;64.24;101641.34;3593926;39;20090;-62
2022/07/28 04:57:20;;;;;;;3.78;2.50;;;;;;;13.86;64.25;101648.47;3594630;39;20055;-62
2022/07/28 04:59:46;;;;;;;5.05;2.42;;;;;;;13.87;64.25;101647.53;3594102;39;20059;-62
2022/07/28 05:02:12;;;;;;;5.38;2.40;;;;;;;13.90;64.11;101645.50;3592902;39;20379;-62
2022/07/28 05:04:38;;;;;;;5.40;2.28;;;;;;;13.96;64.00;101649.66;3593761;39;20510;-63
2022/07/28 05:07:05;;;;;;;5.18;2.67;;;;;;;14.00;64.24;101648.50;3594778;39;20066;-62
2022/07/28 05:09:31;;;;;;;6.95;2.40;;;;;;;14.03;63.92;101639.34;3594062;39;20048;-62
2022/07/28 05:11:57;;;;;;;5.50;2.70;;;;;;;14.10;63.66;101652.34;3591770;39;20084;-63
2022/07/28 05:14:24;;;;;;;3.75;2.20;;;;;;;14.17;63.72;101653.69;3592379;39;20055;-63
2022/07/28 05:16:49;;;;;;;7.43;2.65;;;;;;;14.23;63.65;101649.75;3593906;39;20063;-63
2022/07/28 05:19:15;;;;;;;5.53;2.50;;;;;;;14.28;63.74;101654.88;3596030;39;20387;-63
2022/07/28 05:21:40;;;;;;;4.65;2.28;;;;;;;14.35;63.55;101657.06;3596268;39;20063;-64
2022/07/28 05:24:06;;;;;;;5.90;2.60;;;;;;;14.46;63.16;101658.19;3596080;39;20078;-63
2022/07/28 05:26:33;;;;;;;4.65;2.53;;;;;;;14.52;63.09;101660.53;3596717;39;20067;-63
2022/07/28 05:28:58;;;;;;;4.78;2.80;;;;;;;14.52;62.79;101656.00;3597376;39;20384;-63
2022/07/28 05:31:25;;;;;;;5.05;2.80;;;;;;;14.53;62.76;101649.63;3595767;39;20055;-62
2022/07/28 05:33:51;;;;;;;5.22;2.30;;;;;;;14.69;62.80;101654.06;3595393;39;20410;-62
2022/07/28 05:36:16;;;;;;;7.03;2.60;;;;;;;14.78;62.58;101665.13;3594207;39;20052;-62
2022/07/28 05:38:42;;;;;;;5.10;2.83;;;;;;;14.28;62.04;101568.31;3591845;39;20051;-62
2022/07/28 05:41:07;;;;;;;6.45;2.33;;;;;;;14.91;62.48;101656.19;3591320;39;20294;-63
2022/07/28 05:43:36;;;;;;;5.03;2.50;;;;;;;14.97;62.04;101659.38;3591848;39;20144;-62
2022/07/28 05:46:03;;;;;;;5.68;2.67;;;;;;;15.08;62.59;101650.50;3589111;39;20086;-63
2022/07/28 05:48:29;;;;;;;2.70;2.10;;;;;;;15.13;62.42;101645.66;3591916;39;20402;-63
2022/07/28 05:50:54;;;;;;;5.25;2.20;;;;;;;15.20;62.07;101637.97;3591206;39;20159;-62
2022/07/28 05:53:21;;;;;;;4.13;2.13;;;;;;;15.41;61.46;101657.28;3592753;39;20063;-62
2022/07/28 05:55:47;;;;;;;4.93;2.30;;;;;;;15.27;61.04;101604.94;3589812;39;20055;-61
2022/07/28 05:58:13;;;;;;;7.18;2.35;;;;;;;15.65;60.70;101649.31;3589901;39;20070;-62
2022/07/28 06:00:39;;;;;;;6.85;2.38;;;;;;;15.76;60.36;101649.44;3590455;39;20070;-62
2022/07/28 06:03:04;;;;;;;4.50;1.92;;;;;;;15.82;59.68;101656.28;3592494;39;20051;-62
2022/07/28 06:05:31;;;;;;;6.97;2.33;;;;;;;15.75;59.14;101628.75;3592032;39;20051;-62
2022/07/28 06:07:58;;;;;;;8.68;2.28;;;;;;;15.98;59.35;101656.91;3592537;39;20055;-62
2022/07/28 06:10:57;;;;;;;5.68;1.92;;;;;;;16.05;58.93;101657.34;3591561;39;20079;-62
2022/07/28 06:13:14;;;;;;;5.15;2.08;;;;;;;15.95;59.06;101630.91;3590212;39;20082;-62
2022/07/28 06:15:41;;;;;;;6.75;2.35;;;;;;;16.15;59.43;101656.59;3590292;39;20056;-62
2022/07/28 06:18:06;;;;;;;6.20;3.00;;;;;;;16.22;58.85;101654.31;3589854;39;20051;-62
2022/07/28 06:20:33;;;;;;;5.55;2.17;;;;;;;16.27;58.43;101651.25;3592381;39;20128;-63
2022/07/28 06:22:58;;;;;;;4.57;2.10;;;;;;;16.37;58.90;101647.78;3591020;39;20059;-63
2022/07/28 06:25:27;;;;;;;7.38;2.10;;;;;;;16.51;59.12;101644.03;3589571;39;20095;-63
2022/07/28 06:27:56;;;;;;;4.40;1.95;;;;;;;16.57;57.98;101645.44;3582890;39;20387;-63
2022/07/28 06:30:23;;;;;;;5.78;2.25;;;;;;;16.64;57.91;101653.00;3590660;39;20051;-63
2022/07/28 06:32:49;;;;;;;7.72;1.90;;;;;;;16.67;57.11;101641.03;3591476;39;20638;-62
2022/07/28 06:35:16;;;;;;;5.53;2.13;;;;;;;16.76;57.20;101645.81;3591244;39;20559;-62
2022/07/28 06:37:48;;;;;;;6.65;2.05;;;;;;;16.94;57.79;101651.72;3584165;39;20067;-62
2022/07/28 06:40:17;;;;;;;3.17;2.10;;;;;;;17.07;56.41;101657.09;3594096;39;20047;-62
2022/07/28 06:42:44;;;;;;;4.40;1.83;;;;;;;17.16;55.26;101659.13;3589735;39;20067;-62
2022/07/28 06:45:12;;;;;;;4.95;2.20;;;;;;;17.22;54.88;101655.94;3590355;39;20071;-63
2022/07/28 06:47:38;;;;;;;4.75;2.10;;;;;;;17.29;55.52;101646.31;3590872;39;20363;-62
2022/07/28 06:50:05;;;;;;;6.28;2.15;;;;;;;17.39;54.73;101650.06;3592669;39;20055;-63
2022/07/28 06:52:32;;;;;;;6.05;1.70;;;;;;;17.45;54.17;101647.84;3590044;39;20044;-63
2022/07/28 06:54:59;;;;;;;6.25;2.10;;;;;;;17.53;54.85;101658.97;3590624;39;20048;-63
2022/07/28 06:57:26;;;;;;;3.17;2.00;;;;;;;17.63;53.28;101659.97;3592415;39;20409;-63
2022/07/28 06:59:53;;;;;;;7.43;1.90;;;;;;;17.53;53.73;101642.66;3592497;39;22331;-63
2022/07/28 07:02:19;;;;;;;4.80;1.70;;;;;;;17.65;53.28;101663.47;3591119;39;20055;-63
2022/07/28 07:04:45;;;;;;;5.35;2.00;;;;;;;17.81;54.77;101663.16;3589236;39;20740;-63
2022/07/28 07:07:11;;;;;;;5.47;1.65;;;;;;;17.89;52.95;101657.09;3591908;39;20059;-63
2022/07/28 07:09:37;;;;;;;6.50;1.77;;;;;;;17.94;53.07;101663.03;3592689;39;20659;-63
2022/07/28 07:12:03;;;;;;;3.55;1.63;;;;;;;18.09;52.27;101661.81;3589666;39;20272;-63
2022/07/28 07:14:29;;;;;;;6.75;2.10;;;;;;;18.32;52.91;101660.81;3592249;39;20301;-64
2022/07/28 07:16:55;;;;;;;6.07;1.98;;;;;;;18.62;51.22;101664.75;3590039;39;20063;-64
2022/07/28 07:19:21;;;;;;;7.78;1.90;;;;;;;18.69;50.71;101619.69;3591077;39;20198;-63
2022/07/28 07:21:48;;;;;;;5.43;1.80;;;;;;;19.19;50.38;101663.63;3591181;39;20104;-61
2022/07/28 07:24:14;;;;;;;2.53;1.50;;;;;;;19.43;49.88;101644.28;3590082;39;20052;-61
2022/07/28 07:26:41;;;;;;;5.15;1.50;;;;;;;19.65;48.62;101658.84;3592391;39;20062;-62
2022/07/28 07:29:07;;;;;;;3.42;1.75;;;;;;;19.63;49.23;101650.75;3588963;39;20137;-61
2022/07/28 07:31:35;;;;;;;5.95;1.90;;;;;;;19.60;48.06;101659.22;3594022;39;20044;-61
2022/07/28 07:34:01;;;;;;;4.18;1.70;;;;;;;19.58;47.84;101644.84;3594900;39;20058;-61
2022/07/28 07:36:27;;;;;;;4.22;1.40;;;;;;;19.75;48.16;101637.94;3596017;39;20062;-61
2022/07/28 07:38:52;;;;;;;5.28;1.50;;;;;;;19.70;46.98;101641.06;3594288;39;20059;-61
2022/07/28 07:41:18;;;;;;;4.85;1.52;;;;;;;19.73;47.29;101641.78;3595910;39;20063;-61
2022/07/28 07:43:45;;;;;;;3.80;1.42;;;;;;;19.85;46.85;101643.44;3595701;39;20301;-61
2022/07/28 07:46:12;;;;;;;7.05;2.38;;;;;;;20.01;46.04;101638.34;3592768;39;20047;-61
2022/07/28 07:48:38;;;;;;;8.13;1.73;;;;;;;20.24;47.80;101635.44;3596263;39;20065;-61
2022/07/28 07:51:04;;;;;;;6.78;1.95;;;;;;;20.41;46.21;101635.63;3596249;39;20302;-61
2022/07/28 07:53:30;;;;;;;17.98;2.80;;;;;;;20.55;45.74;101648.09;3594348;39;20064;-61
2022/07/28 07:55:55;;;;;;;8.30;2.38;;;;;;;20.48;46.71;101603.16;3595684;39;20066;-61
2022/07/28 07:58:22;;;;;;;4.72;1.85;;;;;;;20.81;46.41;101633.91;3597298;39;20314;-62
2022/07/28 08:00:47;;;;;;;5.25;1.80;;;;;;;20.81;45.91;101648.44;3597474;39;20103;-61
2022/07/28 08:03:16;;;;;;;6.30;1.80;;;;;;;21.03;45.92;101640.97;3596750;39;20392;-62
2022/07/28 08:05:42;;;;;;;5.32;1.85;;;;;;;21.19;44.76;101641.25;3592628;39;20055;-61
2022/07/28 08:08:09;;;;;;;6.78;1.70;;;;;;;21.32;44.67;101636.34;3596556;39;20472;-62
2022/07/28 08:10:37;;;;;;;7.07;1.75;;;;;;;21.45;44.07;101635.22;3596096;39;20055;-61
2022/07/28 08:13:05;;;;;;;3.08;1.63;;;;;;;21.55;43.65;101636.94;3590318;39;20051;-61
2022/07/28 08:15:32;;;;;;;4.70;1.65;;;;;;;21.61;44.00;101623.69;3584269;39;20338;-61
2022/07/28 08:17:59;;;;;;;5.47;1.38;;;;;;;21.56;43.76;101630.44;3595038;39;20051;-62
2022/07/28 08:20:25;;;;;;;4.72;1.40;;;;;;;21.59;44.01;101623.81;3593114;39;20295;-62
2022/07/28 08:22:54;;;;;;;2.80;1.40;;;;;;;21.83;44.43;101630.69;3591303;39;20060;-63
2022/07/28 08:25:21;;;;;;;4.80;1.65;;;;;;;21.90;42.23;101640.03;3592388;39;20059;-62
2022/07/28 08:27:48;;;;;;;7.05;1.70;;;;;;;22.01;44.46;101637.09;3591882;39;20450;-62
2022/07/28 08:30:15;;;;;;;7.13;1.90;;;;;;;22.13;43.59;101632.28;3592056;39;20178;-62
2022/07/28 08:32:41;;;;;;;4.72;1.52;;;;;;;22.17;43.22;101631.00;3590707;39;20282;-62
2022/07/28 08:35:08;;;;;;;4.50;1.67;;;;;;;22.31;42.38;101633.25;3594947;39;20140;-62
2022/07/28 08:37:34;;;;;;;4.95;1.65;;;;;;;22.50;42.32;101626.81;3590680;39;20402;-62
2022/07/28 08:40:00;;;;;;;5.32;1.50;;;;;;;22.65;41.75;101629.91;3592758;39;20079;-63
2022/07/28 08:42:42;;;;;;;8.18;2.28;;;;;;;22.75;41.46;101630.69;3593422;39;20528;-62
2022/07/28 08:45:10;;;;;;;5.10;1.50;;;;;;;22.79;42.04;101621.13;3590306;39;20120;-62
2022/07/28 08:47:38;;;;;;;4.78;1.50;;;;;;;23.05;41.31;101625.88;3591152;39;20125;-62
2022/07/28 08:50:04;;;;;;;4.38;1.70;;;;;;;23.11;40.90;101626.09;3590153;39;20063;-63
2022/07/28 08:52:31;;;;;;;6.10;1.75;;;;;;;23.26;40.70;101612.69;3589894;39;20479;-63
2022/07/28 08:55:03;;;;;;;5.55;2.00;;;;;;;23.42;40.39;101628.44;3589254;39;20406;-64
2022/07/28 08:57:41;;;;;;;4.88;1.70;;;;;;;23.63;40.59;101623.47;3592290;39;20064;-64
2022/07/28 09:00:11;;;;;;;4.72;1.70;;;;;;;23.62;39.85;101586.03;3591801;39;20059;-63
2022/07/28 09:02:41;;;;;;;5.07;1.92;;;;;;;23.95;39.24;101618.38;3584872;39;20409;-63
2022/07/28 09:05:08;;;;;;;5.00;1.85;;;;;;;24.02;38.60;101613.94;3591709;39;20089;-63
2022/07/28 09:07:40;;;;;;;3.90;1.77;;;;;;;23.99;39.55;101584.91;3592688;39;20111;-63
2022/07/28 09:10:11;;;;;;;2.75;1.50;;;;;;;24.07;38.51;101582.22;3582302;39;20111;-63
2022/07/28 09:12:41;;;;;;;3.65;1.38;;;;;;;24.22;38.42;101596.16;3591921;39;20055;-63
2022/07/28 09:15:10;;;;;;;3.70;1.48;;;;;;;24.25;38.34;101592.22;3591590;39;20067;-63
2022/07/28 09:17:36;;;;;;;6.90;1.48;;;;;;;24.45;38.82;101590.97;3591028;39;20722;-63
2022/07/28 09:20:06;;;;;;;4.00;1.60;;;;;;;24.58;38.47;101571.25;3591246;39;20099;-64
2022/07/28 09:22:52;;;;;;;12.68;7.53;;;;;;;24.74;37.89;101590.53;3580974;39;20070;-64
2022/07/28 09:25:18;;;;;;;4.40;1.65;;;;;;;24.70;38.29;101582.75;3591919;39;20070;-64
2022/07/28 09:27:43;;;;;;;5.78;1.63;;;;;;;24.79;37.06;101582.59;3591819;39;20058;-65
2022/07/28 09:30:11;;;;;;;4.50;1.35;;;;;;;24.81;37.95;101574.22;3592315;39;20114;-64
2022/07/28 09:32:37;;;;;;;5.93;1.98;;;;;;;25.04;38.78;101568.88;3592453;39;20088;-64
2022/07/28 09:35:18;;;;;;;4.00;1.30;;;;;;;25.03;37.13;101547.91;3590280;39;20055;-65
2022/07/28 09:37:44;;;;;;;7.55;1.90;;;;;;;25.07;35.98;101560.28;3592498;39;20052;-64
2022/07/28 09:40:12;;;;;;;7.28;1.88;;;;;;;25.13;37.27;101545.88;3588225;39;20054;-64
2022/07/28 09:42:54;;;;;;;3.90;1.70;;;;;;;25.47;37.40;101551.19;3589230;39;20157;-64
2022/07/28 09:45:26;;;;;;;4.53;1.35;;;;;;;25.66;35.99;101562.84;3589227;39;20078;-65
2022/07/28 09:48:12;;;;;;;3.63;1.52;;;;;;;25.64;34.79;101553.88;3590983;39;20469;-64
2022/07/28 09:50:42;;;;;;;4.10;1.10;;;;;;;25.54;34.57;101554.09;3592507;39;20457;-64
2022/07/28 09:53:26;;;;;;;3.53;1.48;;;;;;;25.53;34.76;101574.41;3583095;39;20129;-64
2022/07/28 09:55:59;;;;;;;4.65;1.27;;;;;;;25.53;35.62;101568.91;3592768;39;20122;-64
2022/07/28 09:58:26;;;;;;;4.15;1.38;;;;;;;25.73;35.50;101555.59;3590911;39;20055;-64
2022/07/28 10:01:03;;;;;;;4.38;1.30;;;;;;;26.05;34.34;101560.16;3594528;39;20109;-64
2022/07/28 10:03:29;;;;;;;3.15;1.23;;;;;;;26.10;34.85;101559.59;3591655;39;20124;-64
2022/07/28 10:05:57;;;;;;;8.57;1.50;;;;;;;26.02;34.00;101556.91;3591104;39;20393;-65
2022/07/28 10:08:48;;;;;;;6.85;1.50;;;;;;;26.18;34.00;101559.56;3584113;39;20052;-65
2022/07/28 10:11:19;;;;;;;4.22;1.30;;;;;;;26.05;34.60;101531.75;3589177;39;20055;-65
2022/07/28 10:14:05;;;;;;;5.25;1.55;;;;;;;26.41;34.50;101565.13;3591902;39;20056;-65
2022/07/28 10:16:52;;;;;;;3.67;1.55;;;;;;;26.57;33.03;101570.59;3591640;39;20056;-64
2022/07/28 10:19:18;;;;;;;9.57;1.98;;;;;;;25.99;33.89;101463.56;3592454;39;20086;-64
2022/07/28 10:21:48;;;;;;;1.92;1.10;;;;;;;26.56;33.02;101562.50;3591096;39;20375;-65
2022/07/28 10:24:23;;;;;;;5.40;1.30;;;;;;;26.53;33.09;101547.19;3593299;39;20060;-65
2022/07/28 10:26:51;;;;;;;5.05;1.70;;;;;;;26.34;32.94;101555.88;3590710;39;20059;-65
2022/07/28 10:29:20;;;;;;;4.82;1.75;;;;;;;26.26;33.27;101553.16;3590926;39;20069;-64
2022/07/28 10:32:05;;;;;;;4.55;1.38;;;;;;;26.30;33.38;101549.00;3592618;39;20279;-64
2022/07/28 10:34:52;;;;;;;4.57;1.40;;;;;;;26.41;33.74;101543.06;3589817;39;20107;-65
2022/07/28 10:37:22;;;;;;;2.40;1.05;;;;;;;26.66;33.62;101541.06;3592226;39;20376;-65
2022/07/28 10:40:02;;;;;;;5.00;1.33;;;;;;;26.96;33.33;101536.53;3592448;39;20043;-64
2022/07/28 10:42:29;;;;;;;3.40;1.38;;;;;;;27.13;33.31;101541.91;3591344;39;20058;-64
2022/07/28 10:44:56;;;;;;;5.22;1.55;;;;;;;27.28;32.35;101556.63;3589776;39;20055;-64
2022/07/28 10:47:23;;;;;;;5.05;1.60;;;;;;;27.23;32.00;101545.28;3591273;39;20123;-65
2022/07/28 10:49:49;;;;;;;2.63;1.40;;;;;;;27.30;32.13;101546.25;3592600;39;20382;-65
2022/07/28 10:52:18;;;;;;;4.28;1.38;;;;;;;26.84;32.02;101546.28;3591935;39;20082;-65
2022/07/28 10:55:29;;;;;;;8.73;1.50;;;;;;;26.99;32.12;101535.28;3592762;39;20144;-65
2022/07/28 10:58:12;;;;;;;2.58;1.33;;;;;;;27.11;32.42;101532.94;3591659;39;20052;-64
2022/07/28 11:00:49;;;;;;;5.37;1.37;;;;;;;27.08;32.51;101535.03;3592597;39;20055;-65
2022/07/28 11:03:41;;;;;;;3.47;1.25;;;;;;;27.26;31.85;101545.75;3590016;39;20422;-65
2022/07/28 11:06:29;;;;;;;2.97;1.27;;;;;;;27.40;31.74;101538.53;3583879;39;20118;-65
2022/07/28 11:09:18;;;;;;;2.72;1.08;;;;;;;27.30;31.89;101532.44;3590505;39;20325;-63
2022/07/28 11:11:48;;;;;;;3.80;1.20;;;;;;;27.41;31.21;101526.47;3595285;39;20099;-63
2022/07/28 11:14:23;;;;;;;3.50;1.27;;;;;;;27.63;31.27;101529.34;3598525;39;20071;-63
2022/07/28 11:16:59;;;;;;;1.38;0.93;;;;;;;27.65;30.90;101522.56;3589876;39;20171;-63
2022/07/28 11:19:26;;;;;;;4.47;1.38;;;;;;;27.35;30.51;101474.75;3594703;39;20062;-63
2022/07/28 11:22:13;;;;;;;3.90;1.52;;;;;;;27.86;30.54;101505.25;3591201;39;20062;-64
2022/07/28 11:24:57;;;;;;;2.72;1.00;;;;;;;27.94;31.28;101505.16;3590952;39;20676;-64
2022/07/28 11:27:41;;;;;;;6.10;1.25;;;;;;;28.07;31.61;101509.13;3593597;39;20060;-64
2022/07/28 11:30:48;;;;;;;2.35;1.00;;;;;;;28.36;30.53;101511.84;3590250;39;20048;-64
2022/07/28 11:33:13;;;;;;;5.28;1.20;;;;;;;27.88;28.22;101503.16;3585252;39;20051;-65
2022/07/28 11:35:39;;;;;;;6.88;1.35;;;;;;;28.00;29.55;101512.69;3592233;39;20072;-64
2022/07/28 11:38:04;;;;;;;3.33;0.85;;;;;;;27.93;30.75;101506.19;3592230;39;20051;-64
2022/07/28 11:40:43;;;;;;;4.07;1.13;;;;;;;28.10;30.26;101494.91;3591736;39;20056;-64
2022/07/28 11:43:25;;;;;;;2.20;1.13;;;;;;;28.23;29.68;101501.47;3593196;39;20044;-64